Time;durP1;ratioP1;P1;durP2;ratioP2;P2;SDS_P1;SDS_P2;PMS_P1;PMS_P2;Temp;Humidity;BMP_temperature;BMP_pressure;BME280_temperature;BME280_humidity;BME280_pressure;Samples;Min_cycle;Max_cycle;Signal;HPM_P1;HPM_P2
2020/12/24 00:01:34;;;;;;;0.73;0.50;;;;;;;9.42;92.03;96308.50;5094036;28;20267;-69
2020/12/24 00:03:59;;;;;;;1.53;0.50;;;;;;;9.37;90.56;96314.44;5094018;28;20259;-69
2020/12/24 00:06:25;;;;;;;0.60;0.60;;;;;;;9.35;91.66;96316.50;5092207;28;20192;-68
2020/12/24 00:08:50;;;;;;;2.63;0.50;;;;;;;9.35;87.59;96332.19;5092908;28;20225;-69
2020/12/24 00:11:16;;;;;;;0.70;0.70;;;;;;;9.40;88.34;96329.66;5092746;28;20617;-69
2020/12/24 00:13:41;;;;;;;0.60;0.60;;;;;;;9.38;86.25;96329.09;5092755;28;20237;-69
2020/12/24 00:16:07;;;;;;;0.70;0.70;;;;;;;9.33;84.19;96326.38;5092182;28;20188;-71
2020/12/24 00:18:33;;;;;;;1.20;1.10;;;;;;;9.36;82.72;96323.28;5092955;28;20169;-68
2020/12/24 00:20:58;;;;;;;0.83;0.80;;;;;;;9.30;80.87;96326.84;5093088;28;20189;-68
2020/12/24 00:23:24;;;;;;;0.80;0.80;;;;;;;9.34;81.12;96319.34;5092403;28;20836;-68
2020/12/24 00:25:49;;;;;;;0.97;0.97;;;;;;;9.28;80.22;96310.59;5082625;28;20964;-69
2020/12/24 00:28:16;;;;;;;0.97;0.97;;;;;;;9.35;79.60;96324.34;5091276;28;20273;-68
2020/12/24 00:30:41;;;;;;;0.80;0.80;;;;;;;9.36;79.51;96320.69;5092892;28;20173;-68
2020/12/24 00:33:10;;;;;;;0.90;0.90;;;;;;;9.35;79.47;96320.94;5092398;28;20267;-71
2020/12/24 00:35:37;;;;;;;1.00;1.00;;;;;;;9.36;78.75;96312.81;5092188;28;20221;-68
2020/12/24 00:38:03;;;;;;;1.80;0.80;;;;;;;9.31;78.60;96327.63;5092880;28;20176;-68
2020/12/24 00:40:29;;;;;;;0.70;0.70;;;;;;;9.34;78.64;96327.97;5092089;28;20201;-68
2020/12/24 00:42:54;;;;;;;0.90;0.90;;;;;;;9.35;77.81;96332.19;5093212;28;20769;-69
2020/12/24 00:45:20;;;;;;;0.80;0.80;;;;;;;9.42;77.21;96313.72;5091676;28;20334;-69
2020/12/24 00:47:46;;;;;;;0.70;0.70;;;;;;;9.31;77.86;96331.03;5092263;28;20187;-69
2020/12/24 00:50:11;;;;;;;0.80;0.70;;;;;;;9.35;77.68;96316.50;5091755;28;20181;-69
2020/12/24 00:52:37;;;;;;;0.90;0.90;;;;;;;9.29;79.29;96314.78;5084038;28;20247;-69
2020/12/24 00:55:03;;;;;;;1.40;0.97;;;;;;;9.24;80.00;96332.19;5092701;28;20271;-68
2020/12/24 00:57:29;;;;;;;1.60;0.70;;;;;;;9.27;80.67;96329.09;5090027;28;20204;-68
2020/12/24 00:59:55;;;;;;;0.80;0.80;;;;;;;9.28;80.17;96334.13;5091468;28;20209;-67
2020/12/24 01:02:20;;;;;;;1.23;1.17;;;;;;;9.24;80.36;96340.84;5094433;28;20200;-67
2020/12/24 01:04:46;;;;;;;1.30;0.87;;;;;;;9.12;81.64;96353.91;5093035;28;20157;-67
2020/12/24 01:07:11;;;;;;;0.80;0.80;;;;;;;9.10;82.34;96349.91;5091694;28;20230;-67
2020/12/24 01:09:37;;;;;;;0.77;0.77;;;;;;;9.14;84.23;96351.03;5092060;28;20176;-67
2020/12/24 01:12:03;;;;;;;1.03;1.00;;;;;;;8.99;86.12;96366.41;5091754;28;20248;-67
2020/12/24 01:14:28;;;;;;;0.87;0.60;;;;;;;8.95;88.51;96354.81;5091487;28;20261;-67
2020/12/24 01:16:54;;;;;;;1.10;0.70;;;;;;;8.79;90.23;96353.66;5092222;28;20239;-67
2020/12/24 01:19:19;;;;;;;1.30;0.90;;;;;;;8.84;90.13;96364.22;5091377;28;20203;-68
2020/12/24 01:21:47;;;;;;;0.70;0.70;;;;;;;8.72;90.64;96363.41;5090871;28;20172;-68
2020/12/24 01:24:13;;;;;;;0.73;0.50;;;;;;;8.63;91.74;96375.22;5091366;28;20252;-68
2020/12/24 01:26:44;;;;;;;2.10;0.60;;;;;;;8.55;93.02;96352.03;5091768;28;20204;-68
2020/12/24 01:29:10;;;;;;;0.70;0.60;;;;;;;8.62;92.79;96350.13;5090417;28;20206;-70
2020/12/24 01:31:35;;;;;;;0.80;0.60;;;;;;;8.48;94.68;96346.09;5091882;28;20540;-68
2020/12/24 01:34:01;;;;;;;0.50;0.50;;;;;;;8.46;95.56;96350.78;5092219;28;20640;-69
2020/12/24 01:36:26;;;;;;;0.93;0.70;;;;;;;8.39;95.75;96366.53;5091338;28;20192;-68
2020/12/24 01:38:52;;;;;;;0.50;0.50;;;;;;;8.46;97.17;96375.06;5091583;28;20172;-68
2020/12/24 01:41:17;;;;;;;1.17;0.80;;;;;;;8.34;96.53;96371.63;5091062;28;20665;-68
2020/12/24 01:43:43;;;;;;;0.73;0.60;;;;;;;8.44;96.78;96382.31;5091524;28;20544;-68
2020/12/24 01:46:08;;;;;;;0.53;0.50;;;;;;;8.49;97.04;96376.44;5091158;28;20261;-70
2020/12/24 01:48:34;;;;;;;1.13;0.53;;;;;;;8.50;98.09;96391.09;5091676;28;20226;-68
2020/12/24 01:50:59;;;;;;;0.40;0.40;;;;;;;8.49;98.20;96392.09;5091448;28;20238;-68
2020/12/24 01:53:25;;;;;;;0.60;0.60;;;;;;;8.51;98.52;96403.94;5090825;28;20180;-68
2020/12/24 01:55:55;;;;;;;1.70;0.47;;;;;;;8.45;98.94;96396.19;5091654;28;20204;-68
2020/12/24 01:58:20;;;;;;;0.70;0.53;;;;;;;8.48;98.28;96409.56;5088800;28;20597;-68
2020/12/24 02:00:46;;;;;;;0.50;0.50;;;;;;;8.44;98.46;96398.00;5081646;28;20208;-68
2020/12/24 02:03:14;;;;;;;4.00;0.63;;;;;;;8.42;98.00;96396.59;5092062;28;20169;-68
2020/12/24 02:05:39;;;;;;;0.50;0.50;;;;;;;8.38;96.05;96382.41;5091674;28;20206;-68
2020/12/24 02:08:05;;;;;;;0.83;0.60;;;;;;;8.34;94.09;96333.25;5091739;28;20165;-68
2020/12/24 02:10:31;;;;;;;1.30;0.53;;;;;;;8.33;92.79;96362.19;5090894;28;20173;-68
2020/12/24 02:12:56;;;;;;;0.50;0.40;;;;;;;8.21;92.67;96343.03;5091724;28;20169;-67
2020/12/24 02:15:22;;;;;;;0.93;0.60;;;;;;;8.16;89.64;96348.13;5090360;28;20173;-68
2020/12/24 02:17:47;;;;;;;1.60;0.50;;;;;;;8.10;89.00;96351.63;5091771;28;20176;-69
2020/12/24 02:20:13;;;;;;;0.60;0.60;;;;;;;8.04;88.54;96329.03;5090553;28;20193;-67
2020/12/24 02:22:38;;;;;;;0.73;0.53;;;;;;;7.94;86.00;96332.16;5091611;28;20648;-67
2020/12/24 02:25:04;;;;;;;2.13;0.57;;;;;;;7.84;88.50;96316.25;5079465;28;20195;-67
2020/12/24 02:27:29;;;;;;;1.27;0.60;;;;;;;7.77;89.07;96279.81;5090290;28;20210;-67
2020/12/24 02:29:55;;;;;;;0.67;0.50;;;;;;;7.77;88.90;96264.16;5091318;28;20255;-67
2020/12/24 02:32:20;;;;;;;0.60;0.60;;;;;;;7.71;88.06;96257.22;5092429;28;20172;-67
2020/12/24 02:34:45;;;;;;;3.80;0.50;;;;;;;7.65;88.10;96260.72;5095938;28;20187;-67
2020/12/24 02:37:12;;;;;;;0.93;0.60;;;;;;;7.67;87.63;96265.72;5095009;28;20279;-67
2020/12/24 02:39:38;;;;;;;0.63;0.47;;;;;;;7.63;87.45;96259.34;5095207;28;20197;-67
2020/12/24 02:42:04;;;;;;;1.27;0.50;;;;;;;7.64;87.41;96251.28;5095884;28;20169;-67
2020/12/24 02:44:29;;;;;;;0.73;0.53;;;;;;;7.61;87.60;96245.72;5094757;28;20172;-67
2020/12/24 02:46:55;;;;;;;1.07;0.53;;;;;;;7.60;88.19;96255.34;5095138;28;20529;-67
2020/12/24 02:49:20;;;;;;;1.10;0.50;;;;;;;7.65;87.98;96271.13;5094381;28;20187;-67
2020/12/24 02:51:46;;;;;;;1.03;0.50;;;;;;;7.47;88.41;96269.34;5095138;28;20656;-67
2020/12/24 02:54:11;;;;;;;0.53;0.53;;;;;;;7.60;87.51;96262.38;5094596;28;20181;-67
2020/12/24 02:56:37;;;;;;;2.83;1.00;;;;;;;7.55;87.68;96272.69;5095209;28;20200;-67
2020/12/24 02:59:02;;;;;;;0.83;0.60;;;;;;;7.45;88.34;96274.00;5093184;28;20327;-68
2020/12/24 03:01:27;;;;;;;0.80;0.67;;;;;;;7.52;88.91;96281.75;5093690;28;20282;-67
2020/12/24 03:03:53;;;;;;;0.50;0.50;;;;;;;7.53;88.36;96288.53;5095130;28;20251;-67
2020/12/24 03:06:18;;;;;;;0.70;0.70;;;;;;;7.47;89.04;96294.63;5076869;28;20211;-67
2020/12/24 03:08:44;;;;;;;0.70;0.70;;;;;;;7.50;88.86;96296.81;5095356;28;20177;-67
2020/12/24 03:11:09;;;;;;;0.50;0.50;;;;;;;7.56;86.95;96293.34;5094692;28;20192;-67
2020/12/24 03:13:35;;;;;;;0.50;0.50;;;;;;;7.50;86.55;96294.22;5094563;28;20228;-68
2020/12/24 03:16:00;;;;;;;0.70;0.70;;;;;;;7.44;87.87;96303.69;5088497;28;20286;-68
2020/12/24 03:18:26;;;;;;;0.60;0.60;;;;;;;7.49;87.14;96300.44;5093761;28;20804;-68
2020/12/24 03:20:51;;;;;;;1.23;0.70;;;;;;;7.49;86.91;96301.22;5094485;28;20204;-68
2020/12/24 03:23:17;;;;;;;0.60;0.60;;;;;;;7.41;87.43;96288.47;5093868;28;20173;-67
2020/12/24 03:25:42;;;;;;;0.57;0.50;;;;;;;7.41;88.13;96265.00;5094451;28;20216;-68
2020/12/24 03:28:14;;;;;;;1.10;0.87;;;;;;;7.38;87.83;96249.03;5094218;28;20184;-68
2020/12/24 03:30:39;;;;;;;0.50;0.50;;;;;;;7.37;87.34;96237.78;5094964;28;20187;-68
2020/12/24 03:33:05;;;;;;;1.70;0.60;;;;;;;7.41;87.70;96232.97;5086838;28;20252;-70
2020/12/24 03:35:31;;;;;;;0.60;0.60;;;;;;;7.28;88.26;96236.50;5093608;28;20200;-67
2020/12/24 03:37:56;;;;;;;0.50;0.50;;;;;;;7.29;88.77;96242.53;5094935;28;20198;-67
2020/12/24 03:40:21;;;;;;;1.00;0.50;;;;;;;7.23;90.07;96233.78;5093699;28;20200;-68
2020/12/24 03:42:47;;;;;;;1.33;0.60;;;;;;;7.32;89.35;96231.66;5094522;28;20176;-67
2020/12/24 03:45:12;;;;;;;0.60;0.60;;;;;;;7.33;89.35;96234.03;5092632;28;20172;-66
2020/12/24 03:47:40;;;;;;;0.50;0.50;;;;;;;7.39;89.53;96232.38;5094403;28;20175;-67
2020/12/24 03:50:06;;;;;;;0.50;0.50;;;;;;;7.34;89.67;96227.03;5094086;28;20177;-67
2020/12/24 03:52:31;;;;;;;1.03;0.50;;;;;;;7.24;90.09;96218.94;5093499;28;20192;-66
2020/12/24 03:54:57;;;;;;;0.63;0.47;;;;;;;7.17;90.74;96219.00;5093829;28;20267;-68
2020/12/24 03:57:22;;;;;;;0.57;0.50;;;;;;;7.16;90.95;96227.84;5093243;28;20208;-68
2020/12/24 03:59:48;;;;;;;0.30;0.30;;;;;;;7.16;90.85;96242.66;5091296;28;20307;-67
2020/12/24 04:02:13;;;;;;;0.30;0.30;;;;;;;7.14;90.95;96247.28;5093748;28;20184;-67
2020/12/24 04:04:38;;;;;;;0.43;0.43;;;;;;;7.12;91.49;96260.56;5094028;28;20200;-67
2020/12/24 04:07:04;;;;;;;1.33;0.40;;;;;;;7.16;91.87;96264.31;5093793;28;20192;-67
2020/12/24 04:09:29;;;;;;;0.67;0.43;;;;;;;7.14;92.02;96253.31;5092996;28;20234;-68
2020/12/24 04:11:55;;;;;;;0.40;0.40;;;;;;;7.15;91.11;96252.28;5094271;28;20169;-68
2020/12/24 04:14:20;;;;;;;0.43;0.30;;;;;;;7.01;92.17;96251.66;5092920;28;20168;-67
2020/12/24 04:16:46;;;;;;;2.20;0.70;;;;;;;7.04;91.53;96261.63;5077406;28;20253;-68
2020/12/24 04:19:12;;;;;;;0.40;0.40;;;;;;;7.10;89.75;96255.56;5092881;28;20251;-68
2020/12/24 04:21:37;;;;;;;0.87;0.70;;;;;;;7.21;89.89;96253.22;5093573;28;20169;-68
2020/12/24 04:24:02;;;;;;;0.87;0.70;;;;;;;7.14;91.29;96261.13;5093559;28;20172;-68
2020/12/24 04:26:28;;;;;;;0.53;0.43;;;;;;;7.11;92.08;96256.34;5092441;28;20320;-68
2020/12/24 04:28:53;;;;;;;0.73;0.70;;;;;;;7.10;92.22;96255.56;5093103;28;20204;-68
2020/12/24 04:31:19;;;;;;;0.40;0.33;;;;;;;7.09;92.83;96261.78;5090144;28;20260;-68
2020/12/24 04:33:45;;;;;;;1.33;0.63;;;;;;;7.15;92.80;96246.28;5093650;28;20180;-68
2020/12/24 04:36:14;;;;;;;0.40;0.40;;;;;;;7.12;93.26;96246.72;5092545;28;20201;-67
2020/12/24 04:38:40;;;;;;;1.37;0.60;;;;;;;7.23;93.08;96238.97;5093242;28;20169;-68
2020/12/24 04:41:05;;;;;;;0.40;0.40;;;;;;;7.13;93.91;96245.72;5093135;28;20189;-68
2020/12/24 04:43:31;;;;;;;0.90;0.50;;;;;;;7.30;93.07;96254.56;5091732;28;20185;-68
2020/12/24 04:45:57;;;;;;;0.87;0.47;;;;;;;7.27;92.28;96266.19;5089564;28;20564;-68
2020/12/24 04:48:23;;;;;;;2.10;0.50;;;;;;;7.23;91.98;96259.84;5058071;28;20169;-68
2020/12/24 04:50:50;;;;;;;0.40;0.40;;;;;;;7.20;90.88;96239.41;5092806;28;20176;-68
2020/12/24 04:53:17;;;;;;;1.37;0.40;;;;;;;7.19;91.21;96244.84;5092361;28;20225;-68
2020/12/24 04:55:42;;;;;;;0.47;0.47;;;;;;;7.16;90.52;96245.28;5092483;28;20197;-68
2020/12/24 04:58:13;;;;;;;0.83;0.40;;;;;;;7.15;90.39;96233.25;5090525;28;20769;-68
2020/12/24 05:00:39;;;;;;;0.83;0.30;;;;;;;7.15;90.81;96221.03;5092843;28;20216;-68
2020/12/24 05:03:06;;;;;;;1.20;0.37;;;;;;;7.08;90.41;96212.47;5093106;28;20294;-68
2020/12/24 05:05:32;;;;;;;0.50;0.50;;;;;;;7.15;89.56;96215.81;5092012;28;20199;-68
2020/12/24 05:08:02;;;;;;;0.60;0.50;;;;;;;7.04;89.40;96221.75;5092681;28;20240;-68
2020/12/24 05:10:27;;;;;;;1.17;0.80;;;;;;;7.02;89.49;96214.16;5091571;28;20234;-68
2020/12/24 05:12:53;;;;;;;1.30;0.90;;;;;;;7.01;89.73;96217.78;5092711;28;20181;-68
2020/12/24 05:15:31;;;;;;;1.10;0.90;;;;;;;6.96;89.42;96224.66;5091906;28;20246;-68
2020/12/24 05:18:18;;;;;;;0.70;0.70;;;;;;;6.80;90.02;96209.63;5091970;28;20188;-69
2020/12/24 05:20:43;;;;;;;1.70;0.40;;;;;;;6.72;90.88;96222.91;5092472;28;20184;-68
2020/12/24 05:23:15;;;;;;;0.60;0.60;;;;;;;6.71;90.74;96214.28;5092581;28;20579;-68
2020/12/24 05:25:41;;;;;;;0.40;0.40;;;;;;;6.71;90.13;96216.09;5092065;28;20688;-68
2020/12/24 05:28:07;;;;;;;0.70;0.37;;;;;;;6.63;90.31;96220.56;5083597;28;20184;-68
2020/12/24 05:30:34;;;;;;;0.63;0.40;;;;;;;6.54;90.66;96232.28;5091022;28;20165;-68
2020/12/24 05:32:59;;;;;;;2.10;0.50;;;;;;;6.53;90.14;96228.09;5079063;28;20180;-69
2020/12/24 05:35:26;;;;;;;0.73;0.50;;;;;;;6.43;90.61;96224.38;5091447;28;20306;-68
2020/12/24 05:37:53;;;;;;;0.50;0.50;;;;;;;6.33;91.22;96231.88;5092109;28;20509;-69
2020/12/24 05:40:26;;;;;;;1.00;0.57;;;;;;;6.45;90.45;96230.97;5091018;28;20189;-68
2020/12/24 05:42:57;;;;;;;0.93;0.70;;;;;;;6.43;90.41;96230.38;5092214;28;20251;-68
2020/12/24 05:45:27;;;;;;;0.87;0.60;;;;;;;6.39;90.23;96229.22;5091294;28;20676;-67
2020/12/24 05:48:29;;;;;;;1.60;0.57;;;;;;;6.33;90.10;96218.88;5092152;28;20267;-68
2020/12/24 05:50:55;;;;;;;1.47;0.43;;;;;;;6.17;90.75;96218.41;5091913;28;20183;-68
2020/12/24 05:53:21;;;;;;;0.40;0.40;;;;;;;6.36;90.44;96218.44;5091501;28;20526;-69
2020/12/24 05:55:46;;;;;;;1.60;0.50;;;;;;;6.38;90.27;96213.81;5091608;28;20239;-68
2020/12/24 05:58:17;;;;;;;1.07;0.50;;;;;;;6.28;91.22;96197.91;5088939;28;20695;-68
2020/12/24 06:00:47;;;;;;;1.30;0.60;;;;;;;6.30;90.90;96188.09;5094636;28;20333;-68
2020/12/24 06:03:18;;;;;;;0.50;0.50;;;;;;;6.30;90.25;96190.69;5084527;28;20168;-68
2020/12/24 06:06:04;;;;;;;1.93;0.50;;;;;;;6.29;90.40;96184.69;5091398;28;20265;-68
2020/12/24 06:08:32;;;;;;;1.20;0.50;;;;;;;6.28;90.16;96182.28;5090370;28;20180;-68
2020/12/24 06:11:07;;;;;;;0.70;0.40;;;;;;;6.22;90.39;96182.13;5091832;28;20625;-68
2020/12/24 06:13:39;;;;;;;0.73;0.50;;;;;;;6.13;90.89;96185.22;5090762;28;20172;-68
2020/12/24 06:16:07;;;;;;;1.70;0.50;;;;;;;6.05;91.11;96185.47;5091611;28;20639;-68
2020/12/24 06:18:37;;;;;;;1.00;0.40;;;;;;;6.00;90.99;96185.31;5090927;28;20177;-67
2020/12/24 06:21:13;;;;;;;1.07;0.40;;;;;;;6.03;91.23;96185.69;5086638;28;20192;-68
2020/12/24 06:23:47;;;;;;;1.70;0.70;;;;;;;6.17;90.45;96178.59;5091100;28;20656;-68
2020/12/24 06:26:20;;;;;;;0.87;0.70;;;;;;;6.27;90.74;96173.69;5091178;28;20228;-67
2020/12/24 06:28:48;;;;;;;1.80;0.63;;;;;;;6.41;89.81;96169.94;5090401;28;20192;-68
2020/12/24 06:31:14;;;;;;;2.03;0.80;;;;;;;6.42;89.94;96168.13;5091138;28;20230;-67
2020/12/24 06:33:41;;;;;;;2.10;1.03;;;;;;;6.31;90.35;96166.22;5091118;28;20176;-67
2020/12/24 06:36:26;;;;;;;0.77;0.50;;;;;;;6.34;90.11;96168.41;5091510;28;20200;-69
2020/12/24 06:38:51;;;;;;;0.97;0.60;;;;;;;6.39;90.05;96158.16;5091358;28;20181;-68
2020/12/24 06:41:38;;;;;;;2.40;0.77;;;;;;;6.42;89.68;96155.91;5090645;28;20212;-68
2020/12/24 06:44:05;;;;;;;0.63;0.57;;;;;;;6.43;89.50;96156.72;5091624;28;20184;-69
2020/12/24 06:46:57;;;;;;;1.40;0.90;;;;;;;6.52;89.04;96155.44;5090394;28;20256;-68
2020/12/24 06:49:30;;;;;;;1.00;0.60;;;;;;;6.50;88.61;96144.44;5084529;28;20219;-68
2020/12/24 06:51:56;;;;;;;1.93;0.70;;;;;;;6.49;88.33;96140.22;5089530;28;20195;-68
2020/12/24 06:54:24;;;;;;;1.23;0.70;;;;;;;6.41;88.94;96137.94;5090390;28;20188;-68
2020/12/24 06:56:50;;;;;;;3.53;1.20;;;;;;;6.40;89.23;96141.53;5090585;28;20200;-67
2020/12/24 06:59:20;;;;;;;2.83;0.97;;;;;;;6.36;89.26;96142.97;5084155;28;20232;-68
2020/12/24 07:02:03;;;;;;;1.97;0.77;;;;;;;6.43;88.78;96139.28;5091712;28;20185;-68
2020/12/24 07:04:40;;;;;;;1.83;0.70;;;;;;;7.59;100.00;96125.19;5090916;28;20295;-67
2020/12/24 07:07:06;;;;;;;3.87;0.90;;;;;;;8.33;90.34;96120.16;5086397;28;20200;-66
2020/12/24 07:09:31;;;;;;;1.73;0.80;;;;;;;8.82;83.23;96118.03;5089329;28;20192;-66
2020/12/24 07:11:58;;;;;;;2.20;0.90;;;;;;;8.46;77.85;96113.91;5089941;28;20208;-66
2020/12/24 07:14:26;;;;;;;3.90;1.10;;;;;;;7.99;79.95;96120.13;5088993;28;20218;-65
2020/12/24 07:16:52;;;;;;;1.53;1.00;;;;;;;7.55;80.79;96121.44;5088938;28;20201;-64
2020/12/24 07:19:19;;;;;;;1.90;0.93;;;;;;;7.35;81.66;96121.75;5090650;28;20177;-65
2020/12/24 07:21:52;;;;;;;0.80;0.80;;;;;;;7.23;81.67;96126.91;5094357;28;20173;-64
2020/12/24 07:24:31;;;;;;;0.87;0.67;;;;;;;7.11;82.17;96126.06;5093486;28;20310;-65
2020/12/24 07:27:02;;;;;;;1.73;0.80;;;;;;;6.99;82.00;96117.41;5094449;28;20207;-64
2020/12/24 07:29:29;;;;;;;3.70;1.30;;;;;;;6.94;82.35;96115.47;5092925;28;20184;-66
2020/12/24 07:31:59;;;;;;;2.17;1.20;;;;;;;6.98;81.64;96116.59;5094256;28;20177;-65
2020/12/24 07:34:27;;;;;;;2.33;1.07;;;;;;;6.95;81.68;96111.06;5093180;28;20195;-65
2020/12/24 07:36:53;;;;;;;3.03;1.00;;;;;;;6.83;80.88;96111.00;5085164;28;20203;-65
2020/12/24 07:39:20;;;;;;;2.50;1.10;;;;;;;6.80;81.28;96106.22;5093251;28;20591;-65
2020/12/24 07:41:46;;;;;;;1.97;0.90;;;;;;;6.81;80.59;96110.41;5094406;28;20173;-66
2020/12/24 07:44:14;;;;;;;1.07;0.77;;;;;;;6.83;80.07;96105.00;5083703;28;20180;-66
2020/12/24 07:46:39;;;;;;;3.43;1.20;;;;;;;6.81;80.37;96104.41;5093386;28;20559;-65
2020/12/24 07:49:06;;;;;;;3.23;1.00;;;;;;;6.90;79.44;96103.91;5093665;28;20292;-65
2020/12/24 07:51:32;;;;;;;3.07;0.83;;;;;;;6.91;79.53;96096.88;5092537;28;20237;-65
2020/12/24 07:54:12;;;;;;;3.30;1.17;;;;;;;6.87;78.40;96095.72;5093725;28;20199;-65
2020/12/24 07:56:43;;;;;;;3.50;0.90;;;;;;;6.91;78.17;96089.84;5092737;28;20812;-65
2020/12/24 07:59:08;;;;;;;3.77;1.20;;;;;;;6.96;77.73;96097.81;5090917;28;20281;-65
2020/12/24 08:01:33;;;;;;;4.70;1.40;;;;;;;6.97;77.26;96088.16;5092279;28;20204;-65
2020/12/24 08:04:00;;;;;;;3.50;1.00;;;;;;;7.00;77.04;96088.53;5093322;28;20268;-65
2020/12/24 08:06:28;;;;;;;4.20;1.10;;;;;;;7.05;76.99;96090.47;5092491;28;20204;-64
2020/12/24 08:09:15;;;;;;;4.20;1.20;;;;;;;7.06;76.69;96086.84;5093626;28;20198;-59
2020/12/24 08:11:50;;;;;;;2.73;0.87;;;;;;;7.06;76.69;96086.84;5091504;28;20176;-64
2020/12/24 08:14:20;;;;;;;3.33;1.07;;;;;;;7.07;76.21;96091.84;5093069;28;20538;-65
2020/12/24 08:16:47;;;;;;;1.40;0.97;;;;;;;7.11;75.74;96081.78;5093532;28;20277;-63
2020/12/24 08:19:25;;;;;;;4.37;1.20;;;;;;;7.15;75.84;96074.28;5093113;28;20622;-63
2020/12/24 08:21:59;;;;;;;3.33;1.60;;;;;;;7.13;75.51;96089.38;5078641;28;20184;-61
2020/12/24 08:24:26;;;;;;;5.80;1.40;;;;;;;7.21;75.79;96083.84;5091510;28;20184;-68
2020/12/24 08:26:53;;;;;;;5.77;1.10;;;;;;;7.20;75.50;96079.63;5092756;28;20238;-65
2020/12/24 08:29:19;;;;;;;1.87;1.10;;;;;;;7.14;75.14;96083.91;5082861;28;20181;-63
2020/12/24 08:31:46;;;;;;;1.17;0.90;;;;;;;7.07;75.42;96091.06;5079531;28;20168;-64
2020/12/24 08:34:11;;;;;;;2.77;0.90;;;;;;;7.04;75.61;96084.47;5091071;28;20164;-64
2020/12/24 08:36:43;;;;;;;2.83;0.90;;;;;;;7.02;76.05;96086.47;5090522;28;20204;-64
2020/12/24 08:39:10;;;;;;;2.77;1.17;;;;;;;7.03;76.08;96076.88;5092300;28;20193;-63
2020/12/24 08:41:40;;;;;;;2.50;0.70;;;;;;;6.96;76.22;96076.19;5092105;28;20204;-65
2020/12/24 08:44:05;;;;;;;1.53;0.77;;;;;;;6.89;75.97;96085.88;5092844;28;20181;-65
2020/12/24 08:46:31;;;;;;;2.33;0.77;;;;;;;6.91;76.50;96083.88;5090883;28;20737;-64
2020/12/24 08:49:24;;;;;;;0.93;0.80;;;;;;;6.83;76.92;96071.94;5092799;28;20246;-64
2020/12/24 08:52:22;;;;;;;0.63;0.63;;;;;;;6.88;77.27;96069.47;5085131;28;20203;-64
2020/12/24 08:55:01;;;;;;;3.60;0.83;;;;;;;6.92;77.66;96077.63;5092885;28;20192;-63
2020/12/24 08:57:27;;;;;;;1.70;0.90;;;;;;;6.81;78.10;96065.34;5090042;28;20651;-64
2020/12/24 08:59:57;;;;;;;2.63;0.70;;;;;;;6.80;78.46;96068.97;5099388;28;20230;-64
2020/12/24 09:02:24;;;;;;;1.87;0.70;;;;;;;6.82;78.59;96070.34;5091487;28;20754;-64
2020/12/24 09:04:57;;;;;;;3.67;0.90;;;;;;;6.80;78.54;96061.94;5092373;28;20544;-62
2020/12/24 09:07:28;;;;;;;1.37;0.70;;;;;;;6.78;78.98;96069.19;5091243;28;20572;-59
2020/12/24 09:10:06;;;;;;;4.83;0.90;;;;;;;6.84;78.85;96063.09;5091835;28;20164;-62
2020/12/24 09:12:33;;;;;;;2.10;0.80;;;;;;;6.81;78.78;96073.16;5089711;28;20621;-61
2020/12/24 09:15:01;;;;;;;2.03;1.07;;;;;;;6.80;79.22;96076.78;5092292;28;20540;-63
2020/12/24 09:17:27;;;;;;;0.80;0.70;;;;;;;6.85;78.36;96074.31;5091560;28;20196;-62
2020/12/24 09:20:08;;;;;;;2.47;0.90;;;;;;;6.86;78.75;96092.31;5090225;28;20672;-65
2020/12/24 09:22:34;;;;;;;2.77;1.00;;;;;;;6.90;78.88;96092.69;5091999;28;20180;-64
2020/12/24 09:25:00;;;;;;;2.53;0.90;;;;;;;6.95;78.20;96091.00;5089760;28;20562;-62
2020/12/24 09:27:26;;;;;;;1.80;1.07;;;;;;;7.00;78.79;96096.34;5091862;28;20201;-63
2020/12/24 09:29:52;;;;;;;2.97;1.00;;;;;;;7.00;78.05;96085.13;5089530;28;20289;-63
2020/12/24 09:32:19;;;;;;;1.07;0.70;;;;;;;6.96;77.44;96087.41;5091733;28;20180;-64
2020/12/24 09:34:44;;;;;;;4.17;0.70;;;;;;;6.93;78.04;96082.63;5092302;28;20185;-57
2020/12/24 09:37:10;;;;;;;1.13;0.80;;;;;;;6.93;77.45;96071.41;5091561;28;20262;-64
2020/12/24 09:39:36;;;;;;;1.13;0.90;;;;;;;6.91;77.55;96095.06;5090693;28;20185;-64
2020/12/24 09:42:02;;;;;;;1.27;0.90;;;;;;;6.97;76.90;96075.13;5090175;28;20172;-64
2020/12/24 09:44:27;;;;;;;1.50;1.03;;;;;;;6.96;77.16;96079.59;5072227;28;20188;-64
2020/12/24 09:46:53;;;;;;;2.17;0.87;;;;;;;7.00;76.53;96092.94;5083739;28;20246;-66
2020/12/24 09:49:19;;;;;;;1.00;0.70;;;;;;;7.00;77.18;96096.34;5082780;28;20192;-65
2020/12/24 09:51:44;;;;;;;1.83;0.90;;;;;;;7.09;76.67;96092.41;5079420;28;20267;-65
2020/12/24 09:54:10;;;;;;;0.60;0.60;;;;;;;7.10;76.40;96107.03;5091609;28;20659;-63
2020/12/24 09:56:35;;;;;;;2.07;0.80;;;;;;;7.13;77.10;96105.00;5085727;28;20587;-64
2020/12/24 09:59:02;;;;;;;1.37;0.80;;;;;;;7.16;76.78;96099.34;5088575;28;20234;-65
2020/12/24 10:01:28;;;;;;;1.13;0.90;;;;;;;7.18;76.43;96112.97;5074840;28;20254;-66
2020/12/24 10:03:54;;;;;;;0.93;0.70;;;;;;;7.26;76.24;96113.44;5090960;28;20177;-68
2020/12/24 10:06:25;;;;;;;3.60;1.17;;;;;;;7.28;75.94;96131.47;5090321;28;20208;-69
2020/12/24 10:08:50;;;;;;;1.90;0.90;;;;;;;7.30;75.69;96113.78;5084742;28;20604;-65
2020/12/24 10:11:16;;;;;;;4.00;1.30;;;;;;;7.37;75.77;96111.88;5075577;28;20164;-65
2020/12/24 10:13:42;;;;;;;0.97;0.73;;;;;;;7.44;75.50;96104.75;5090985;28;20187;-61
2020/12/24 10:16:08;;;;;;;1.27;0.90;;;;;;;7.55;74.93;96118.84;5082961;28;20665;-63
2020/12/24 10:18:34;;;;;;;2.97;1.07;;;;;;;7.63;75.04;96116.72;5090048;28;20185;-61
2020/12/24 10:21:00;;;;;;;5.57;0.97;;;;;;;7.84;78.34;96123.19;5091141;28;20204;-61
2020/12/24 10:23:26;;;;;;;1.20;0.83;;;;;;;8.15;75.78;96122.88;5090433;28;20255;-62
2020/12/24 10:25:52;;;;;;;1.47;0.87;;;;;;;8.02;73.59;96130.13;5090821;28;20277;-62
2020/12/24 10:28:18;;;;;;;0.77;0.77;;;;;;;7.89;73.67;96133.75;5090204;28;20184;-66
2020/12/24 10:30:43;;;;;;;1.70;0.90;;;;;;;7.78;74.13;96135.31;5090255;28;20176;-66
2020/12/24 10:33:09;;;;;;;1.10;0.90;;;;;;;7.75;74.21;96133.16;5091086;28;20717;-66
2020/12/24 10:35:36;;;;;;;2.67;0.80;;;;;;;7.82;74.29;96133.84;5089985;28;20559;-65
2020/12/24 10:38:03;;;;;;;0.93;0.70;;;;;;;7.90;73.85;96138.75;5090947;28;20230;-66
2020/12/24 10:40:28;;;;;;;1.13;0.70;;;;;;;7.97;73.85;96136.00;5089800;28;20207;-65
2020/12/24 10:42:53;;;;;;;1.57;0.80;;;;;;;7.99;73.61;96130.56;5078445;28;20184;-65
2020/12/24 10:45:19;;;;;;;2.67;1.20;;;;;;;7.96;73.72;96134.44;5089986;28;20192;-65
2020/12/24 10:47:44;;;;;;;1.43;0.83;;;;;;;8.09;73.85;96142.03;5090435;28;20180;-64
2020/12/24 10:50:10;;;;;;;1.63;0.90;;;;;;;8.19;73.54;96133.66;5090765;28;20184;-65
2020/12/24 10:52:36;;;;;;;1.27;0.77;;;;;;;8.14;73.12;96144.75;5089823;28;20177;-66
2020/12/24 10:55:05;;;;;;;1.07;0.70;;;;;;;8.31;72.85;96137.06;5094343;28;20185;-69
2020/12/24 10:57:31;;;;;;;3.00;0.90;;;;;;;8.39;72.20;96128.13;5097354;28;20232;-63
2020/12/24 10:59:56;;;;;;;1.80;1.30;;;;;;;8.35;72.96;96130.41;5093595;28;20299;-64
2020/12/24 11:02:22;;;;;;;1.30;0.87;;;;;;;8.36;72.03;96126.75;5094095;28;20652;-63
2020/12/24 11:04:47;;;;;;;1.17;0.80;;;;;;;8.36;72.03;96126.75;5094301;28;20169;-63
2020/12/24 11:07:13;;;;;;;1.23;0.87;;;;;;;8.27;71.85;96122.88;5094443;28;20236;-65
2020/12/24 11:09:38;;;;;;;1.03;0.87;;;;;;;8.24;72.51;96134.56;5093255;28;20173;-65
2020/12/24 11:12:04;;;;;;;2.30;0.77;;;;;;;8.39;71.99;96125.50;5094640;28;20180;-64
2020/12/24 11:14:30;;;;;;;0.87;0.70;;;;;;;8.46;72.43;96126.97;5093425;28;20210;-63
2020/12/24 11:16:58;;;;;;;0.73;0.73;;;;;;;8.37;72.26;96127.53;5094077;28;20217;-64
2020/12/24 11:19:25;;;;;;;0.83;0.60;;;;;;;8.21;72.42;96132.41;5082935;28;20267;-64
2020/12/24 11:21:51;;;;;;;1.23;0.80;;;;;;;8.03;72.87;96116.84;5092708;28;20227;-64
2020/12/24 11:24:17;;;;;;;1.50;0.77;;;;;;;8.02;72.68;96114.47;5094698;28;20180;-64
2020/12/24 11:26:42;;;;;;;0.70;0.70;;;;;;;7.93;72.94;96108.78;5091841;28;20197;-64
2020/12/24 11:29:08;;;;;;;1.10;0.60;;;;;;;7.94;74.27;96121.63;5094496;28;20172;-61
2020/12/24 11:31:37;;;;;;;1.33;0.93;;;;;;;7.91;72.89;96108.25;5091195;28;20181;-63
2020/12/24 11:34:03;;;;;;;0.60;0.60;;;;;;;7.84;73.39;96102.34;5091295;28;20710;-63
2020/12/24 11:36:28;;;;;;;1.63;0.80;;;;;;;7.74;73.50;96104.72;5092655;28;20200;-68
2020/12/24 11:38:55;;;;;;;1.10;0.70;;;;;;;7.74;73.63;96089.06;5091935;28;20222;-63
2020/12/24 11:41:23;;;;;;;0.60;0.60;;;;;;;7.82;73.89;96097.34;5094452;28;20200;-63
2020/12/24 11:43:49;;;;;;;0.60;0.60;;;;;;;7.87;73.92;96089.63;5093235;28;20186;-64